Time;durP1;ratioP1;P1;durP2;ratioP2;P2;SDS_P1;SDS_P2;PMS_P1;PMS_P2;Temp;Humidity;BMP_temperature;BMP_pressure;BME280_temperature;BME280_humidity;BME280_pressure;Samples;Min_cycle;Max_cycle;Signal;HPM_P1;HPM_P2
2021/01/03 00:00:52;;;;;;;;;;;;;;;-1.81;100.00;102390.72;1867327;77;20233;-39
2021/01/03 00:03:19;;;;;;;;;;;;;;;-1.75;100.00;102394.55;1867182;77;20154;-41
2021/01/03 00:05:48;;;;;;;;;;;;;;;-1.73;100.00;102395.53;1867516;77;20177;-40
2021/01/03 00:08:15;;;;;;;;;;;;;;;-1.71;100.00;102398.20;1867436;77;20459;-38
2021/01/03 00:10:45;;;;;;;;;;;;;;;-1.73;100.00;102389.50;1867259;77;20179;-38
2021/01/03 00:13:13;;;;;;;;;;;;;;;-1.73;100.00;102389.50;1867210;77;20269;-40
2021/01/03 00:15:40;;;;;;;;;;;;;;;-1.71;100.00;102390.48;1867247;77;20463;-40
2021/01/03 00:18:09;;;;;;;;;;;;;;;-1.69;100.00;102394.91;1867085;77;20126;-39
2021/01/03 00:20:38;;;;;;;;;;;;;;;-1.62;100.00;102396.16;1867486;77;20452;-39
2021/01/03 00:23:06;;;;;;;;;;;;;;;-1.60;100.00;102401.00;1867244;77;20154;-39
2021/01/03 00:25:34;;;;;;;;;;;;;;;-1.57;100.00;102401.56;1867342;77;20372;-38
2021/01/03 00:28:01;;;;;;;;;;;;;;;-1.57;100.00;102397.31;1867294;77;20230;-39
2021/01/03 00:30:29;;;;;;;;;;;;;;;-1.54;100.00;102405.63;1867302;77;20194;-38
2021/01/03 00:32:57;;;;;;;;;;;;;;;-1.51;100.00;102415.67;1880581;75;20189;-38
2021/01/03 00:35:30;;;;;;;;;;;;;;;-1.45;100.00;102401.03;1871831;75;20206;-38
2021/01/03 00:38:02;;;;;;;;;;;;;;;-1.45;100.00;102398.06;1867326;77;20189;-39
2021/01/03 00:40:31;;;;;;;;;;;;;;;-1.46;100.00;102400.14;1867340;77;20133;-39
2021/01/03 00:42:59;;;;;;;;;;;;;;;-1.42;100.00;102404.66;1867491;77;20289;-39
2021/01/03 00:45:27;;;;;;;;;;;;;;;-1.39;100.00;102405.25;1867445;77;20173;-37
2021/01/03 00:47:57;;;;;;;;;;;;;;;-1.37;100.00;102406.20;1867245;77;20126;-39
2021/01/03 00:50:26;;;;;;;;;;;;;;;-1.32;100.00;102409.95;1871817;75;20200;-38
2021/01/03 00:52:53;;;;;;;;;;;;;;;-1.25;100.00;102412.09;1867515;77;20168;-38
2021/01/03 00:55:21;;;;;;;;;;;;;;;-1.17;100.00;102406.08;1867382;77;20199;-40
2021/01/03 00:57:50;;;;;;;;;;;;;;;-1.12;100.00;102403.00;1868142;75;20404;-39
2021/01/03 01:00:21;;;;;;;;;;;;;;;-1.10;100.00;102406.53;1867245;77;20270;-39
2021/01/03 01:02:49;;;;;;;;;;;;;;;-1.08;100.00;102406.63;1867288;77;20395;-39
2021/01/03 01:05:17;;;;;;;;;;;;;;;-1.10;100.00;102401.38;1867011;77;20268;-38
2021/01/03 01:07:45;;;;;;;;;;;;;;;-1.08;100.00;102407.91;1867522;77;20274;-39
2021/01/03 01:10:16;;;;;;;;;;;;;;;-1.04;100.00;102403.02;1867507;77;20231;-40
2021/01/03 01:12:43;;;;;;;;;;;;;;;-1.03;100.00;102406.48;1867471;77;20163;-39
2021/01/03 01:15:17;;;;;;;;;;;;;;;-1.00;100.00;102407.56;1867345;76;20572;-38
2021/01/03 01:17:48;;;;;;;;;;;;;;;-0.98;100.00;102410.20;1867150;76;20165;-38
2021/01/03 01:20:17;;;;;;;;;;;;;;;-0.95;100.00;102406.13;1867499;77;20141;-38
2021/01/03 01:22:45;;;;;;;;;;;;;;;-0.93;100.00;102404.94;1867509;77;20428;-39
2021/01/03 01:25:14;;;;;;;;;;;;;;;-0.91;100.00;102410.64;1867370;76;20322;-39
2021/01/03 01:27:42;;;;;;;;;;;;;;;-0.87;100.00;102413.00;1867329;77;20187;-38
2021/01/03 01:30:11;;;;;;;;;;;;;;;-0.81;100.00;102412.06;1867161;76;20236;-38
2021/01/03 01:32:40;;;;;;;;;;;;;;;-0.74;100.00;102408.15;1867143;77;20136;-39
2021/01/03 01:35:09;;;;;;;;;;;;;;;-0.76;100.00;102408.45;1901678;75;20180;-38
2021/01/03 01:37:37;;;;;;;;;;;;;;;-0.74;100.00;102419.34;1888319;75;20174;-39
2021/01/03 01:40:06;;;;;;;;;;;;;;;-0.72;100.00;102415.13;1893861;75;20119;-39
2021/01/03 01:42:34;;;;;;;;;;;;;;;-0.71;100.00;102415.63;1868338;75;20453;-39
2021/01/03 01:45:05;;;;;;;;;;;;;;;-0.75;100.00;102408.94;1867506;76;20187;-39
2021/01/03 01:47:35;;;;;;;;;;;;;;;-0.76;100.00;102399.04;1867405;77;20216;-40
2021/01/03 01:50:08;;;;;;;;;;;;;;;-0.76;100.00;102404.59;1867427;77;20187;-38
2021/01/03 01:52:39;;;;;;;;;;;;;;;-0.76;100.00;102407.16;1867561;77;20133;-39
2021/01/03 01:55:09;;;;;;;;;;;;;;;-0.74;100.00;102410.33;1866698;76;20194;-39
2021/01/03 01:57:40;;;;;;;;;;;;;;;-0.74;100.00;102410.33;1867080;77;20150;-40
2021/01/03 02:00:16;;;;;;;;;;;;;;;-0.73;100.00;102404.77;1867467;77;20416;-38
2021/01/03 02:02:56;;;;;;;;;;;;;;;-0.72;100.00;102408.70;1834763;77;20142;-39
2021/01/03 02:05:42;;;;;;;;;;;;;;;-0.67;100.00;102407.69;1867253;77;20123;-41
2021/01/03 02:08:35;;;;;;;;;;;;;;;-0.66;100.00;102405.20;1867403;77;20162;-38
2021/01/03 02:11:05;;;;;;;;;;;;;;;-0.68;100.00;102410.66;1832701;78;20181;-39
2021/01/03 02:13:36;;;;;;;;;;;;;;;-0.65;100.00;102417.66;1832500;78;20398;-39
2021/01/03 02:16:06;;;;;;;;;;;;;;;-0.67;100.00;102418.88;1832651;78;20387;-39
2021/01/03 02:18:34;;;;;;;;;;;;;;;-0.70;100.00;102413.94;1832473;78;20419;-38
2021/01/03 02:21:20;;;;;;;;;;;;;;;-0.71;100.00;102416.02;1802985;78;20156;-38
2021/01/03 02:27:16;;;;;;;;;;;;;;;-0.65;100.00;102408.24;1920884;74;20114;-37
2021/01/03 02:29:44;;;;;;;;;;;;;;;-0.71;100.00;102416.02;1872573;75;20414;-38
2021/01/03 02:32:12;;;;;;;;;;;;;;;-0.72;100.00;102421.58;1869005;75;20271;-39
2021/01/03 02:34:42;;;;;;;;;;;;;;;-0.71;100.00;102417.31;1903174;75;20120;-39
2021/01/03 02:37:19;;;;;;;;;;;;;;;-0.68;100.00;102420.08;1903185;75;20144;-38
2021/01/03 02:39:56;;;;;;;;;;;;;;;-0.68;100.00;102411.95;1903018;75;20124;-39
2021/01/03 02:42:27;;;;;;;;;;;;;;;-0.72;100.00;102415.13;1902947;75;20441;-43
2021/01/03 02:44:55;;;;;;;;;;;;;;;-0.76;100.00;102413.20;1903240;75;20393;-39
2021/01/03 02:47:28;;;;;;;;;;;;;;;-0.77;100.00;102412.71;1903263;75;20199;-39
2021/01/03 02:49:56;;;;;;;;;;;;;;;-0.76;100.00;102414.48;1902873;75;20147;-39
2021/01/03 02:52:30;;;;;;;;;;;;;;;-0.76;100.00;102414.89;1903467;75;20282;-40
2021/01/03 02:54:58;;;;;;;;;;;;;;;-0.76;100.00;102421.33;1902265;75;20402;-39
2021/01/03 02:57:27;;;;;;;;;;;;;;;-0.76;100.00;102422.61;1903109;75;20528;-39
2021/01/03 02:59:55;;;;;;;;;;;;;;;-0.73;100.00;102417.65;1902103;75;20469;-40
2021/01/03 03:02:23;;;;;;;;;;;;;;;-0.73;100.00;102424.98;1899547;75;20437;-39
2021/01/03 03:04:50;;;;;;;;;;;;;;;-0.72;100.00;102416.86;1903041;75;20293;-37
2021/01/03 03:07:18;;;;;;;;;;;;;;;-0.70;100.00;102431.57;1903381;75;20359;-39
2021/01/03 03:09:46;;;;;;;;;;;;;;;-0.71;100.00;102427.61;1902895;75;20120;-40
2021/01/03 03:12:14;;;;;;;;;;;;;;;-0.71;100.00;102433.66;1903388;75;20258;-39
2021/01/03 03:14:41;;;;;;;;;;;;;;;-0.70;100.00;102430.28;1903014;75;20227;-39
2021/01/03 03:17:09;;;;;;;;;;;;;;;-0.70;100.00;102435.44;1903388;75;20151;-39
2021/01/03 03:19:37;;;;;;;;;;;;;;;-0.71;100.00;102430.19;1903255;75;20160;-39
2021/01/03 03:22:04;;;;;;;;;;;;;;;-0.71;100.00;102427.22;1903206;75;20136;-38
2021/01/03 03:24:32;;;;;;;;;;;;;;;-0.73;100.00;102433.98;1903294;75;20442;-38
2021/01/03 03:27:01;;;;;;;;;;;;;;;-0.72;100.00;102437.02;1903031;75;20132;-38
2021/01/03 03:29:28;;;;;;;;;;;;;;;-0.70;100.00;102438.01;1903014;75;20140;-39
2021/01/03 03:31:56;;;;;;;;;;;;;;;-0.69;100.00;102433.34;1903026;75;20132;-38
2021/01/03 03:34:24;;;;;;;;;;;;;;;-0.67;100.00;102430.88;1902923;75;20183;-39
2021/01/03 03:36:53;;;;;;;;;;;;;;;-0.70;100.00;102434.55;1902668;75;20199;-39
2021/01/03 03:39:21;;;;;;;;;;;;;;;-0.73;100.00;102433.10;1902321;75;20130;-39
2021/01/03 03:41:49;;;;;;;;;;;;;;;-0.72;100.00;102435.73;1902471;75;20394;-39
2021/01/03 03:44:16;;;;;;;;;;;;;;;-0.73;100.00;102440.83;1902303;75;20262;-39
2021/01/03 03:46:49;;;;;;;;;;;;;;;-0.72;100.00;102434.88;1902450;75;20293;-39
2021/01/03 03:49:17;;;;;;;;;;;;;;;-0.73;100.00;102435.28;1902290;75;20302;-39
2021/01/03 03:51:45;;;;;;;;;;;;;;;-0.71;100.00;102437.52;1902549;75;20159;-40
2021/01/03 03:54:13;;;;;;;;;;;;;;;-0.72;100.00;102446.47;1902698;75;20120;-40
2021/01/03 03:56:40;;;;;;;;;;;;;;;-0.72;100.00;102442.61;1902429;75;20143;-38
2021/01/03 03:59:09;;;;;;;;;;;;;;;-0.72;100.00;102443.46;1902763;75;20398;-40
2021/01/03 04:01:38;;;;;;;;;;;;;;;-0.69;100.00;102446.63;1902217;75;20183;-39
2021/01/03 04:04:06;;;;;;;;;;;;;;;-0.67;100.00;102451.47;1902678;75;20133;-40
2021/01/03 04:06:33;;;;;;;;;;;;;;;-0.64;100.00;102457.67;1902625;75;20488;-40
2021/01/03 04:09:01;;;;;;;;;;;;;;;-0.66;100.00;102455.43;1889709;75;20162;-39
2021/01/03 04:11:31;;;;;;;;;;;;;;;-0.64;100.00;102452.52;1862963;77;20245;-40
2021/01/03 04:13:59;;;;;;;;;;;;;;;-0.63;100.00;102455.98;1863231;77;20213;-39
2021/01/03 04:16:27;;;;;;;;;;;;;;;-0.61;100.00;102451.42;1862938;77;20162;-38
2021/01/03 04:18:55;;;;;;;;;;;;;;;-0.60;100.00;102457.06;1863288;77;20194;-39
2021/01/03 04:21:23;;;;;;;;;;;;;;;-0.59;100.00;102458.81;1863161;77;20269;-39
2021/01/03 04:23:50;;;;;;;;;;;;;;;-0.62;100.00;102456.08;1863336;77;20225;-38
2021/01/03 04:26:20;;;;;;;;;;;;;;;-0.64;100.00;102455.48;1862874;77;20249;-46
2021/01/03 04:28:48;;;;;;;;;;;;;;;-0.67;100.00;102454.94;1862386;77;20388;-39
2021/01/03 04:31:18;;;;;;;;;;;;;;;-0.71;100.00;102463.27;1862811;77;20221;-40
2021/01/03 04:33:46;;;;;;;;;;;;;;;-0.73;100.00;102457.17;1863285;77;20393;-39
2021/01/03 04:36:15;;;;;;;;;;;;;;;-0.73;100.00;102463.61;1863124;77;20127;-39
2021/01/03 04:38:43;;;;;;;;;;;;;;;-0.73;100.00;102458.85;1863308;77;20385;-39
2021/01/03 04:41:12;;;;;;;;;;;;;;;-0.75;100.00;102464.30;1863050;77;20142;-40
2021/01/03 04:43:40;;;;;;;;;;;;;;;-0.74;100.00;102464.80;1863336;77;20186;-41
2021/01/03 04:46:10;;;;;;;;;;;;;;;-0.76;100.00;102467.28;1875992;76;20391;-40
2021/01/03 04:48:38;;;;;;;;;;;;;;;-0.75;100.00;102466.48;1879361;76;20153;-39
2021/01/03 04:51:30;;;;;;;;;;;;;;;-0.76;100.00;102467.67;1874335;76;20121;-40
2021/01/03 04:54:12;;;;;;;;;;;;;;;-0.80;100.00;102469.20;1867247;77;20141;-44
2021/01/03 04:56:44;;;;;;;;;;;;;;;-0.82;100.00;102469.50;1858608;77;20133;-40
2021/01/03 04:59:18;;;;;;;;;;;;;;;-0.85;100.00;102465.45;1867282;76;20299;-42
2021/01/03 05:01:49;;;;;;;;;;;;;;;-0.89;100.00;102463.51;1866912;77;20152;-40
2021/01/03 05:04:48;;;;;;;;;;;;;;;-0.91;100.00;102467.67;1866769;76;20180;-40
2021/01/03 05:07:28;;;;;;;;;;;;;;;-0.93;100.00;102466.32;1866568;77;20186;-40
2021/01/03 05:10:06;;;;;;;;;;;;;;;-0.93;100.00;102468.00;1868359;75;20283;-39
2021/01/03 05:12:52;;;;;;;;;;;;;;;-0.94;100.00;102477.81;1872107;75;20264;-39
2021/01/03 05:15:26;;;;;;;;;;;;;;;-0.95;100.00;102478.60;1866361;77;20400;-39
2021/01/03 05:17:54;;;;;;;;;;;;;;;-0.93;100.00;102483.45;1862276;76;20150;-38
2021/01/03 05:20:22;;;;;;;;;;;;;;;-0.94;100.00;102486.42;1874909;75;20180;-40
2021/01/03 05:22:49;;;;;;;;;;;;;;;-0.91;100.00;102489.55;1867417;77;20129;-39
2021/01/03 05:25:19;;;;;;;;;;;;;;;-0.84;100.00;102493.86;1866936;77;20166;-38
2021/01/03 05:28:06;;;;;;;;;;;;;;;-0.74;100.00;102491.83;1867225;77;20213;-39
2021/01/03 05:30:34;;;;;;;;;;;;;;;-0.71;100.00;102494.17;1837059;77;20142;-40
2021/01/03 05:33:08;;;;;;;;;;;;;;;-0.71;100.00;102495.45;1839067;77;20163;-39
2021/01/03 05:35:41;;;;;;;;;;;;;;;-0.67;100.00;102500.00;1832610;78;20164;-39
2021/01/03 05:38:10;;;;;;;;;;;;;;;-0.64;100.00;102506.60;1832704;77;20164;-38
2021/01/03 05:40:43;;;;;;;;;;;;;;;-0.60;100.00;102509.86;1797149;78;20268;-39
2021/01/03 05:43:20;;;;;;;;;;;;;;;-0.55;100.00;102511.41;1814615;78;20188;-39
2021/01/03 05:46:13;;;;;;;;;;;;;;;-0.53;100.00;102517.14;1862663;77;20311;-39
2021/01/03 05:48:44;;;;;;;;;;;;;;;-0.49;100.00;102518.19;1862456;77;20118;-40
2021/01/03 05:51:19;;;;;;;;;;;;;;;-0.47;100.00;102520.47;1843208;77;20213;-39
2021/01/03 05:53:47;;;;;;;;;;;;;;;-0.44;100.00;102521.91;1818868;78;20268;-40
2021/01/03 05:56:22;;;;;;;;;;;;;;;-0.44;100.00;102531.81;1827300;78;20230;-39
2021/01/03 05:58:52;;;;;;;;;;;;;;;-0.46;100.00;102527.40;1846486;78;20135;-40
2021/01/03 06:01:26;;;;;;;;;;;;;;;-0.48;100.00;102532.85;1846187;78;20139;-39
2021/01/03 06:04:06;;;;;;;;;;;;;;;-0.46;100.00;102533.84;1846326;78;20465;-39
2021/01/03 06:06:53;;;;;;;;;;;;;;;-0.47;100.00;102527.80;1845372;78;20452;-40
2021/01/03 06:09:33;;;;;;;;;;;;;;;-0.49;100.00;102529.78;1842802;78;20241;-40
2021/01/03 06:12:04;;;;;;;;;;;;;;;-0.46;100.00;102535.98;1831547;77;20270;-40
2021/01/03 06:14:31;;;;;;;;;;;;;;;-0.42;100.00;102536.67;1835001;78;20163;-39
2021/01/03 06:17:08;;;;;;;;;;;;;;;-0.41;100.00;102537.56;1834924;77;20214;-39
2021/01/03 06:19:38;;;;;;;;;;;;;;;-0.38;100.00;102538.11;1834157;78;20465;-41
2021/01/03 06:22:13;;;;;;;;;;;;;;;-0.36;100.00;102548.12;1835048;78;20286;-39
2021/01/03 06:26:56;;;;;;;;;;;;;;;-0.22;100.00;102546.81;1903443;74;20272;-39
2021/01/03 06:29:33;;;;;;;;;;;;;;;-0.20;100.00;102545.22;1870985;75;20205;-39
2021/01/03 06:32:27;;;;;;;;;;;;;;;-0.11;100.00;102548.69;1859728;75;20275;-42
2021/01/03 06:35:04;;;;;;;;;;;;;;;-0.06;100.00;102553.30;1870905;75;20174;-40
2021/01/03 06:37:42;;;;;;;;;;;;;;;-0.05;100.00;102551.21;1867631;77;20138;-39
2021/01/03 06:40:17;;;;;;;;;;;;;;;-0.04;100.00;102557.27;1842747;77;20213;-40
2021/01/03 06:43:03;;;;;;;;;;;;;;;-0.03;100.00;102557.75;1867415;77;20503;-41
2021/01/03 06:45:37;;;;;;;;;;;;;;;-0.01;100.00;102558.73;1866623;77;20149;-39
2021/01/03 06:48:48;;;;;;;;;;;;;;;0.04;100.00;102561.16;1867972;75;20157;-39
2021/01/03 06:51:35;;;;;;;;;;;;;;;0.06;100.00;102568.59;1867302;76;20270;-42
2021/01/03 06:54:24;;;;;;;;;;;;;;;0.09;100.00;102566.56;1812753;76;20434;-40
2021/01/03 06:57:13;;;;;;;;;;;;;;;0.12;100.00;102566.75;1883134;75;20676;-40
2021/01/03 07:00:04;;;;;;;;;;;;;;;0.15;100.00;102564.33;1867332;77;20134;-41
2021/01/03 07:02:32;;;;;;;;;;;;;;;0.16;100.00;102569.57;1870219;75;20162;-40
2021/01/03 07:05:07;;;;;;;;;;;;;;;0.19;100.00;102565.89;1834515;77;20470;-41
2021/01/03 07:07:37;;;;;;;;;;;;;;;0.24;100.00;102553.23;1867178;77;20182;-40
2021/01/03 07:10:10;;;;;;;;;;;;;;;0.23;100.00;102563.06;1836353;77;20182;-41
2021/01/03 07:12:41;;;;;;;;;;;;;;;0.24;100.00;102555.81;1867409;77;20459;-40
2021/01/03 07:15:25;;;;;;;;;;;;;;;0.30;100.00;102564.77;1875014;75;20225;-42
2021/01/03 07:17:59;;;;;;;;;;;;;;;0.30;100.00;102558.73;1864976;75;20150;-40
2021/01/03 07:20:50;;;;;;;;;;;;;;;0.29;100.00;102556.95;1875037;75;20173;-40
2021/01/03 07:23:41;;;;;;;;;;;;;;;0.32;100.00;102559.31;1871990;75;20131;-42
2021/01/03 07:26:31;;;;;;;;;;;;;;;0.29;100.00;102560.41;1874817;75;20138;-40
2021/01/03 07:29:10;;;;;;;;;;;;;;;0.28;100.00;102559.92;1869308;75;20122;-42
2021/01/03 07:31:52;;;;;;;;;;;;;;;0.33;100.00;102566.61;1876037;75;20142;-42
2021/01/03 07:34:30;;;;;;;;;;;;;;;0.40;100.00;102570.02;1901445;75;20148;-41
2021/01/03 07:37:25;;;;;;;;;;;;;;;0.44;100.00;102570.69;1868392;75;20143;-41
2021/01/03 07:39:59;;;;;;;;;;;;;;;0.47;100.00;102572.52;1887808;75;20163;-43
2021/01/03 07:42:29;;;;;;;;;;;;;;;0.52;100.00;102569.42;1901600;75;20184;-40
2021/01/03 07:44:59;;;;;;;;;;;;;;;0.61;100.00;102572.47;1868529;75;20206;-41
2021/01/03 07:47:39;;;;;;;;;;;;;;;0.68;100.00;102578.45;1870727;75;20265;-41
2021/01/03 07:50:33;;;;;;;;;;;;;;;0.72;100.00;102585.53;1886243;75;20139;-40
2021/01/03 07:53:25;;;;;;;;;;;;;;;0.76;100.00;102595.24;1871815;75;20221;-42
2021/01/03 07:55:53;;;;;;;;;;;;;;;0.78;100.00;102592.34;1877222;75;20577;-42
2021/01/03 07:58:22;;;;;;;;;;;;;;;0.79;100.00;102595.78;1894997;75;20183;-41
2021/01/03 08:00:56;;;;;;;;;;;;;;;0.82;100.00;102601.12;1877415;75;20313;-41
2021/01/03 08:03:24;;;;;;;;;;;;;;;0.86;100.00;102604.74;1876558;75;20190;-41
2021/01/03 08:05:53;;;;;;;;;;;;;;;0.90;100.00;102605.01;1897569;75;20168;-42
2021/01/03 08:08:23;;;;;;;;;;;;;;;0.95;100.00;102604.84;1846717;77;20138;-42
2021/01/03 08:10:53;;;;;;;;;;;;;;;0.99;100.00;102604.59;1849308;77;20150;-44
2021/01/03 08:13:24;;;;;;;;;;;;;;;1.03;100.00;102601.38;1814246;78;20411;-41
2021/01/03 08:15:57;;;;;;;;;;;;;;;1.09;100.00;102603.88;1814707;77;20657;-42
2021/01/03 08:18:25;;;;;;;;;;;;;;;1.14;100.00;102604.11;1817279;78;20189;-46
2021/01/03 08:20:56;;;;;;;;;;;;;;;1.19;100.00;102601.34;1821653;78;20292;-41
2021/01/03 08:23:29;;;;;;;;;;;;;;;1.25;100.00;102604.24;1780123;78;20206;-41
2021/01/03 08:26:09;;;;;;;;;;;;;;;1.32;100.00;102610.22;1857292;77;20190;-41
2021/01/03 08:28:39;;;;;;;;;;;;;;;1.39;100.00;102604.95;1793756;78;20454;-43
2021/01/03 08:31:07;;;;;;;;;;;;;;;1.43;100.00;102608.20;1842713;77;20189;-43
2021/01/03 08:33:37;;;;;;;;;;;;;;;1.46;100.00;102609.63;1807324;79;20224;-41
2021/01/03 08:36:31;;;;;;;;;;;;;;;1.47;100.00;102608.83;1799854;78;20209;-41
2021/01/03 08:39:10;;;;;;;;;;;;;;;1.47;100.00;102611.41;1808101;78;20409;-42
2021/01/03 08:41:41;;;;;;;;;;;;;;;1.46;100.00;102611.81;1813476;78;20145;-41
2021/01/03 08:44:10;;;;;;;;;;;;;;;1.47;100.00;102611.00;1775416;78;20198;-42
2021/01/03 08:46:41;;;;;;;;;;;;;;;1.52;100.00;102607.35;1761717;80;20167;-42
2021/01/03 08:49:10;;;;;;;;;;;;;;;1.54;100.00;102600.57;1817563;78;20174;-41
2021/01/03 08:51:37;;;;;;;;;;;;;;;1.59;100.00;102604.27;1816157;78;20161;-42
2021/01/03 08:54:09;;;;;;;;;;;;;;;1.62;100.00;102594.50;1807431;78;20170;-41
2021/01/03 08:56:47;;;;;;;;;;;;;;;1.62;99.59;102597.97;1804018;78;20464;-43
2021/01/03 08:59:18;;;;;;;;;;;;;;;1.65;99.24;102592.94;1818154;78;20482;-42
2021/01/03 09:01:45;;;;;;;;;;;;;;;1.68;98.84;102586.64;1809896;78;20203;-41
2021/01/03 09:04:17;;;;;;;;;;;;;;;1.72;98.40;102593.72;1810329;78;20198;-41
2021/01/03 09:06:47;;;;;;;;;;;;;;;1.75;98.03;102589.13;1811689;78;20215;-42
2021/01/03 09:09:17;;;;;;;;;;;;;;;1.79;97.80;102588.05;1803047;78;20173;-43
2021/01/03 09:12:02;;;;;;;;;;;;;;;1.82;97.49;102588.22;1809858;78;20306;-42
2021/01/03 09:14:38;;;;;;;;;;;;;;;1.87;97.15;102579.37;1803495;78;20190;-43
2021/01/03 09:17:22;;;;;;;;;;;;;;;1.88;96.77;102578.17;1815734;78;20208;-43
2021/01/03 09:19:59;;;;;;;;;;;;;;;1.87;96.38;102577.68;1804658;78;20178;-42
2021/01/03 09:22:33;;;;;;;;;;;;;;;1.87;95.86;102584.55;1809933;78;20416;-46
2021/01/03 09:25:10;;;;;;;;;;;;;;;1.87;95.65;102582.85;1811454;78;20184;-42
2021/01/03 09:27:39;;;;;;;;;;;;;;;1.95;95.46;102585.41;1794090;78;20178;-41
2021/01/03 09:30:19;;;;;;;;;;;;;;;1.95;94.57;102581.94;1810751;78;20194;-41
2021/01/03 09:32:52;;;;;;;;;;;;;;;1.90;94.09;102576.95;1809562;78;20223;-41
2021/01/03 09:35:42;;;;;;;;;;;;;;;1.87;93.64;102575.09;1810164;78;20164;-40
2021/01/03 09:38:30;;;;;;;;;;;;;;;1.87;93.41;102575.09;1817307;78;20214;-41
2021/01/03 09:41:20;;;;;;;;;;;;;;;1.81;92.82;102565.75;1806108;78;20221;-40
2021/01/03 09:44:04;;;;;;;;;;;;;;;1.79;92.85;102566.07;1803641;78;20242;-41
2021/01/03 09:46:38;;;;;;;;;;;;;;;1.82;92.92;102559.77;1806523;78;20204;-42
2021/01/03 09:49:25;;;;;;;;;;;;;;;1.82;92.92;102564.05;1809523;78;20269;-41
2021/01/03 09:51:59;;;;;;;;;;;;;;;1.78;92.55;102557.83;1806522;78;20216;-41
2021/01/03 09:54:33;;;;;;;;;;;;;;;1.67;92.19;102564.19;1811847;78;20219;-42
2021/01/03 09:57:03;;;;;;;;;;;;;;;1.64;92.12;102556.70;1816095;78;20157;-41
2021/01/03 09:59:33;;;;;;;;;;;;;;;1.62;92.14;102549.27;1804992;78;20357;-41
2021/01/03 10:02:15;;;;;;;;;;;;;;;1.56;91.90;102546.86;1807384;78;20466;-41
2021/01/03 10:04:44;;;;;;;;;;;;;;;1.55;91.72;102548.96;1808840;78;20182;-43
2021/01/03 10:07:21;;;;;;;;;;;;;;;1.52;91.38;102547.91;1808310;78;20214;-42
2021/01/03 10:09:57;;;;;;;;;;;;;;;1.46;91.32;102551.08;1803580;78;20203;-49
2021/01/03 10:12:31;;;;;;;;;;;;;;;1.43;91.27;102550.05;1805346;78;20465;-40
2021/01/03 10:15:08;;;;;;;;;;;;;;;1.39;91.42;102554.56;1808652;78;20195;-41
2021/01/03 10:17:36;;;;;;;;;;;;;;;1.40;91.59;102552.06;1808852;78;20139;-43
2021/01/03 10:20:19;;;;;;;;;;;;;;;1.40;91.62;102552.47;1827436;78;20168;-42
2021/01/03 10:22:46;;;;;;;;;;;;;;;1.38;91.58;102556.27;1786346;78;20576;-41
2021/01/03 10:27:13;;;;;;;;;;;;;;;1.40;91.31;102561.52;1895794;74;20114;-46
2021/01/03 10:29:38;;;;;;;;;;;;;;;1.34;91.14;102567.66;1872135;75;20445;-41
2021/01/03 10:32:07;;;;;;;;;;;;;;;1.30;91.00;102568.34;1871736;75;20458;-43
2021/01/03 10:34:38;;;;;;;;;;;;;;;1.26;90.96;102567.27;1845271;75;20136;-43
2021/01/03 10:37:06;;;;;;;;;;;;;;;1.22;91.00;102569.23;1874938;75;20281;-41
2021/01/03 10:39:35;;;;;;;;;;;;;;;1.21;91.00;102566.16;1869345;75;20133;-41
2021/01/03 10:42:04;;;;;;;;;;;;;;;1.17;90.82;102566.83;1888655;75;20183;-43
2021/01/03 10:44:32;;;;;;;;;;;;;;;1.14;90.81;102567.94;1869179;75;20262;-41
2021/01/03 10:47:00;;;;;;;;;;;;;;;1.14;90.82;102571.81;1836572;77;20277;-40
2021/01/03 10:49:29;;;;;;;;;;;;;;;1.14;90.86;102566.25;1839338;77;20239;-42
2021/01/03 10:51:58;;;;;;;;;;;;;;;1.14;90.95;102564.95;1775388;78;20263;-40
2021/01/03 10:54:27;;;;;;;;;;;;;;;1.15;90.98;102565.45;1832788;77;20471;-42
2021/01/03 10:56:57;;;;;;;;;;;;;;;1.14;90.96;102559.80;1825238;78;20181;-40
2021/01/03 10:59:25;;;;;;;;;;;;;;;1.08;90.87;102563.35;1811885;78;20187;-39
2021/01/03 11:01:55;;;;;;;;;;;;;;;1.03;90.87;102563.53;1784405;78;20206;-41
2021/01/03 11:04:23;;;;;;;;;;;;;;;1.01;90.95;102562.55;1811646;78;20488;-42
2021/01/03 11:06:53;;;;;;;;;;;;;;;0.97;91.01;102562.33;1807586;78;20207;-43
2021/01/03 11:09:24;;;;;;;;;;;;;;;0.92;91.12;102569.80;1808108;78;20189;-42
2021/01/03 11:11:57;;;;;;;;;;;;;;;0.85;91.07;102568.14;1811910;78;20196;-41
2021/01/03 11:14:25;;;;;;;;;;;;;;;0.78;91.23;102568.22;1805020;78;20200;-41
2021/01/03 11:16:54;;;;;;;;;;;;;;;0.75;91.34;102570.23;1811149;78;20243;-43
2021/01/03 11:19:21;;;;;;;;;;;;;;;0.70;91.35;102572.97;1813924;78;20297;-42
2021/01/03 11:21:54;;;;;;;;;;;;;;;0.66;91.44;102570.13;1808344;78;20197;-44
2021/01/03 11:24:23;;;;;;;;;;;;;;;0.58;91.30;102569.75;1797271;77;20156;-41
2021/01/03 11:26:51;;;;;;;;;;;;;;;0.51;91.35;102574.48;1832034;77;20182;-43
2021/01/03 11:29:22;;;;;;;;;;;;;;;0.41;91.30;102574.38;1829353;77;20208;-41
2021/01/03 11:31:51;;;;;;;;;;;;;;;0.34;91.51;102573.16;1811381;78;20137;-40
2021/01/03 11:34:22;;;;;;;;;;;;;;;0.29;91.71;102574.60;1812173;77;20232;-45
2021/01/03 11:36:53;;;;;;;;;;;;;;;0.26;91.92;102574.85;1832618;77;20227;-40
2021/01/03 11:39:21;;;;;;;;;;;;;;;0.21;92.08;102573.28;1834922;77;20448;-41
2021/01/03 11:41:50;;;;;;;;;;;;;;;0.11;92.08;102574.89;1797037;78;20171;-42
2021/01/03 11:44:20;;;;;;;;;;;;;;;0.06;92.17;102565.13;1812792;78;20150;-42
2021/01/03 11:46:50;;;;;;;;;;;;;;;0.04;92.35;102565.42;1836891;77;20198;-47
2021/01/03 11:49:19;;;;;;;;;;;;;;;0.02;92.58;102561.86;1805404;77;20182;-43
2021/01/03 11:51:50;;;;;;;;;;;;;;;0.00;92.75;102563.95;1820975;77;20514;-48
2021/01/03 11:54:18;;;;;;;;;;;;;;;0.02;92.90;102567.02;1833519;77;20168;-41
2021/01/03 11:56:46;;;;;;;;;;;;;;;-0.01;92.98;102561.31;1835316;76;20540;-41
2021/01/03 11:59:15;;;;;;;;;;;;;;;-0.03;93.05;102561.62;1834937;76;20207;-39
2021/01/03 12:01:42;;;;;;;;;;;;;;;-0.09;93.15;102564.75;1827581;77;20181;-42
2021/01/03 12:04:10;;;;;;;;;;;;;;;-0.12;93.22;102556.83;1835338;77;20137;-42
2021/01/03 12:06:38;;;;;;;;;;;;;;;-0.17;93.27;102566.39;1837847;77;20213;-43
2021/01/03 12:09:07;;;;;;;;;;;;;;;-0.19;93.44;102561.14;1845727;77;20467;-42
2021/01/03 12:11:36;;;;;;;;;;;;;;;-0.19;93.56;102561.14;1838621;77;20477;-43
2021/01/03 12:14:05;;;;;;;;;;;;;;;-0.19;93.69;102557.28;1845876;77;20176;-42
2021/01/03 12:16:33;;;;;;;;;;;;;;;-0.20;93.79;102558.51;1836817;77;20162;-42
2021/01/03 12:19:01;;;;;;;;;;;;;;;-0.26;93.86;102556.44;1834974;77;20302;-40
2021/01/03 12:21:30;;;;;;;;;;;;;;;-0.32;93.87;102553.52;1800504;78;20206;-40
2021/01/03 12:23:58;;;;;;;;;;;;;;;-0.38;93.94;102563.88;1823040;78;20176;-41
2021/01/03 12:26:36;;;;;;;;;;;;;;;-0.43;94.12;102561.05;1817976;77;20282;-46
2021/01/03 12:29:06;;;;;;;;;;;;;;;-0.43;94.41;102564.91;1819110;77;20131;-41
2021/01/03 12:31:38;;;;;;;;;;;;;;;-0.45;94.58;102563.53;1778284;79;20184;-42
2021/01/03 12:34:07;;;;;;;;;;;;;;;-0.48;94.67;102560.80;1824405;78;20235;-42
2021/01/03 12:36:34;;;;;;;;;;;;;;;-0.48;94.83;102561.19;1813229;78;20207;-41
2021/01/03 12:39:03;;;;;;;;;;;;;;;-0.54;94.87;102561.73;1828268;77;20212;-42
2021/01/03 12:41:31;;;;;;;;;;;;;;;-0.59;94.90;102557.97;1835405;77;20190;-43
2021/01/03 12:43:59;;;;;;;;;;;;;;;-0.61;95.04;102552.27;1828451;77;20194;-42
2021/01/03 12:46:29;;;;;;;;;;;;;;;-0.63;95.24;102555.14;1834208;77;20178;-40
2021/01/03 12:48:57;;;;;;;;;;;;;;;-0.65;95.40;102555.44;1806354;77;20188;-40
2021/01/03 12:51:25;;;;;;;;;;;;;;;-0.66;95.67;102554.58;1830905;77;20192;-40
2021/01/03 12:53:53;;;;;;;;;;;;;;;-0.62;95.93;102555.23;1794280;79;20212;-42
2021/01/03 12:56:26;;;;;;;;;;;;;;;-0.61;96.14;102548.00;1804863;78;20197;-44
2021/01/03 12:58:54;;;;;;;;;;;;;;;-0.61;96.35;102549.30;1803642;78;20192;-41
2021/01/03 13:01:24;;;;;;;;;;;;;;;-0.59;96.56;102543.81;1830166;77;20228;-44
2021/01/03 13:03:52;;;;;;;;;;;;;;;-0.58;96.78;102542.13;1834834;77;20197;-39
2021/01/03 13:06:20;;;;;;;;;;;;;;;-0.57;97.03;102540.93;1827681;77;20277;-42